sensor_id;sensor_type;location;lat;lon;timestamp;pressure;altitude;pressure_sealevel;temperature;humidity
70254;BME280;57649;42.968;1.608;2023-03-05T00:02:17;97569.94;;;1.78;86.56
70254;BME280;57649;42.968;1.608;2023-03-05T00:04:42;97566.44;;;1.78;86.53
70254;BME280;57649;42.968;1.608;2023-03-05T00:07:07;97563.06;;;1.76;86.72
70254;BME280;57649;42.968;1.608;2023-03-05T00:09:36;97555.88;;;1.78;86.89
70254;BME280;57649;42.968;1.608;2023-03-05T00:12:02;97566.22;;;1.81;87.35
70254;BME280;57649;42.968;1.608;2023-03-05T00:14:27;97555.81;;;1.66;87.20
70254;BME280;57649;42.968;1.608;2023-03-05T00:16:52;97560.56;;;1.74;86.63
70254;BME280;57649;42.968;1.608;2023-03-05T00:19:18;97563.19;;;1.74;87.44
70254;BME280;57649;42.968;1.608;2023-03-05T00:21:43;97555.31;;;1.61;88.17
70254;BME280;57649;42.968;1.608;2023-03-05T00:24:15;97554.03;;;1.67;87.22
70254;BME280;57649;42.968;1.608;2023-03-05T00:26:42;97559.00;;;1.59;87.25
70254;BME280;57649;42.968;1.608;2023-03-05T00:29:11;97545.63;;;1.36;87.28
70254;BME280;57649;42.968;1.608;2023-03-05T00:31:38;97563.56;;;1.31;88.10
70254;BME280;57649;42.968;1.608;2023-03-05T00:34:07;97554.47;;;1.22;88.43
70254;BME280;57649;42.968;1.608;2023-03-05T00:36:33;97557.03;;;1.11;89.97
70254;BME280;57649;42.968;1.608;2023-03-05T00:38:59;97555.13;;;1.13;89.58
70254;BME280;57649;42.968;1.608;2023-03-05T00:41:25;97553.00;;;1.05;89.65
70254;BME280;57649;42.968;1.608;2023-03-05T00:43:50;97549.53;;;0.92;89.90
70254;BME280;57649;42.968;1.608;2023-03-05T00:46:17;97554.06;;;0.77;90.35
70254;BME280;57649;42.968;1.608;2023-03-05T00:48:42;97553.84;;;0.80;90.54
70254;BME280;57649;42.968;1.608;2023-03-05T00:51:08;97545.81;;;0.82;90.22
70254;BME280;57649;42.968;1.608;2023-03-05T00:53:33;97546.25;;;0.75;90.65
70254;BME280;57649;42.968;1.608;2023-03-05T00:55:59;97551.81;;;0.71;91.86
70254;BME280;57649;42.968;1.608;2023-03-05T00:58:24;97547.81;;;0.78;91.77
70254;BME280;57649;42.968;1.608;2023-03-05T01:00:50;97547.50;;;0.70;91.55
70254;BME280;57649;42.968;1.608;2023-03-05T01:03:16;97547.38;;;0.71;91.57
70254;BME280;57649;42.968;1.608;2023-03-05T01:05:42;97547.28;;;0.73;91.68
70254;BME280;57649;42.968;1.608;2023-03-05T01:08:08;97540.97;;;0.63;91.62
70254;BME280;57649;42.968;1.608;2023-03-05T01:10:33;97545.69;;;0.57;92.66
70254;BME280;57649;42.968;1.608;2023-03-05T01:12:59;97541.59;;;0.66;92.43
70254;BME280;57649;42.968;1.608;2023-03-05T01:15:25;97546.00;;;0.66;92.07
70254;BME280;57649;42.968;1.608;2023-03-05T01:17:51;97541.03;;;0.48;92.26
70254;BME280;57649;42.968;1.608;2023-03-05T01:20:18;97546.44;;;0.60;92.43
70254;BME280;57649;42.968;1.608;2023-03-05T01:22:44;97539.91;;;0.65;92.26
70254;BME280;57649;42.968;1.608;2023-03-05T01:25:11;97527.25;;;0.57;92.24
70254;BME280;57649;42.968;1.608;2023-03-05T01:27:36;97523.25;;;0.65;92.16
70254;BME280;57649;42.968;1.608;2023-03-05T01:30:03;97527.44;;;0.54;92.73
70254;BME280;57649;42.968;1.608;2023-03-05T01:32:28;97516.16;;;0.52;92.64
70254;BME280;57649;42.968;1.608;2023-03-05T01:34:54;97519.63;;;0.53;92.35
70254;BME280;57649;42.968;1.608;2023-03-05T01:37:19;97516.03;;;0.41;93.05
70254;BME280;57649;42.968;1.608;2023-03-05T01:39:44;97520.47;;;0.41;92.82
70254;BME280;57649;42.968;1.608;2023-03-05T01:42:10;97508.78;;;0.45;92.71
70254;BME280;57649;42.968;1.608;2023-03-05T01:44:35;97517.59;;;0.31;93.67
70254;BME280;57649;42.968;1.608;2023-03-05T01:47:01;97512.88;;;0.36;93.47
70254;BME280;57649;42.968;1.608;2023-03-05T01:49:32;97505.41;;;0.43;93.37
70254;BME280;57649;42.968;1.608;2023-03-05T01:52:20;97507.38;;;0.26;92.56
70254;BME280;57649;42.968;1.608;2023-03-05T01:54:49;97504.22;;;0.34;92.34
70254;BME280;57649;42.968;1.608;2023-03-05T01:57:19;97505.09;;;0.07;92.79
70254;BME280;57649;42.968;1.608;2023-03-05T01:59:48;97499.34;;;0.15;93.40
70254;BME280;57649;42.968;1.608;2023-03-05T02:02:15;97488.28;;;0.10;94.51
70254;BME280;57649;42.968;1.608;2023-03-05T02:04:49;97496.41;;;0.19;94.17
70254;BME280;57649;42.968;1.608;2023-03-05T02:07:15;97488.81;;;0.15;93.94
70254;BME280;57649;42.968;1.608;2023-03-05T02:09:42;97479.53;;;0.09;93.53
70254;BME280;57649;42.968;1.608;2023-03-05T02:12:08;97474.06;;;0.12;93.79
70254;BME280;57649;42.968;1.608;2023-03-05T02:14:34;97479.31;;;0.12;94.09
70254;BME280;57649;42.968;1.608;2023-03-05T02:17:01;97475.53;;;0.16;93.82
70254;BME280;57649;42.968;1.608;2023-03-05T02:19:26;97457.53;;;0.10;94.42
70254;BME280;57649;42.968;1.608;2023-03-05T02:21:52;97456.16;;;0.17;93.98
70254;BME280;57649;42.968;1.608;2023-03-05T02:24:32;97452.78;;;0.15;94.54
70254;BME280;57649;42.968;1.608;2023-03-05T02:26:59;97453.97;;;0.24;93.85
70254;BME280;57649;42.968;1.608;2023-03-05T02:29:25;97455.75;;;0.24;93.47
70254;BME280;57649;42.968;1.608;2023-03-05T02:31:52;97447.63;;;0.14;93.83
70254;BME280;57649;42.968;1.608;2023-03-05T02:34:17;97453.25;;;0.35;93.11
70254;BME280;57649;42.968;1.608;2023-03-05T02:36:43;97443.22;;;0.27;92.73
70254;BME280;57649;42.968;1.608;2023-03-05T02:39:08;97448.81;;;0.23;93.41
70254;BME280;57649;42.968;1.608;2023-03-05T02:41:34;97449.84;;;0.20;93.00
70254;BME280;57649;42.968;1.608;2023-03-05T02:43:59;97450.59;;;0.09;93.10
70254;BME280;57649;42.968;1.608;2023-03-05T02:46:25;97453.81;;;0.00;93.53
70254;BME280;57649;42.968;1.608;2023-03-05T02:48:50;97443.06;;;0.03;93.27
70254;BME280;57649;42.968;1.608;2023-03-05T02:51:16;97439.41;;;0.06;93.40
70254;BME280;57649;42.968;1.608;2023-03-05T02:53:41;97436.53;;;-0.04;94.21
70254;BME280;57649;42.968;1.608;2023-03-05T02:56:07;97432.94;;;-0.16;94.41
70254;BME280;57649;42.968;1.608;2023-03-05T02:58:32;97443.75;;;-0.21;94.37
70254;BME280;57649;42.968;1.608;2023-03-05T03:00:58;97439.03;;;-0.15;94.36
70254;BME280;57649;42.968;1.608;2023-03-05T03:03:23;97417.97;;;-0.15;94.40
70254;BME280;57649;42.968;1.608;2023-03-05T03:05:48;97425.22;;;-0.19;94.11
70254;BME280;57649;42.968;1.608;2023-03-05T03:08:14;97422.59;;;-0.19;94.46
70254;BME280;57649;42.968;1.608;2023-03-05T03:10:40;97417.13;;;-0.16;94.66
70254;BME280;57649;42.968;1.608;2023-03-05T03:13:05;97413.44;;;-0.13;94.96
70254;BME280;57649;42.968;1.608;2023-03-05T03:15:31;97416.78;;;-0.24;95.56
70254;BME280;57649;42.968;1.608;2023-03-05T03:17:56;97409.25;;;-0.16;95.23
70254;BME280;57649;42.968;1.608;2023-03-05T03:20:22;97411.03;;;-0.16;95.30
70254;BME280;57649;42.968;1.608;2023-03-05T03:22:48;97404.50;;;-0.24;94.99
70254;BME280;57649;42.968;1.608;2023-03-05T03:25:19;97406.19;;;-0.10;95.17
70254;BME280;57649;42.968;1.608;2023-03-05T03:27:45;97402.22;;;-0.03;95.29
70254;BME280;57649;42.968;1.608;2023-03-05T03:30:11;97410.94;;;-0.02;95.53
70254;BME280;57649;42.968;1.608;2023-03-05T03:32:36;97392.53;;;-0.02;94.88
70254;BME280;57649;42.968;1.608;2023-03-05T03:35:02;97396.19;;;-0.17;95.20
70254;BME280;57649;42.968;1.608;2023-03-05T03:37:28;97405.22;;;-0.22;95.39
70254;BME280;57649;42.968;1.608;2023-03-05T03:39:54;97395.84;;;-0.26;95.24
70254;BME280;57649;42.968;1.608;2023-03-05T03:42:20;97401.97;;;-0.25;94.73
70254;BME280;57649;42.968;1.608;2023-03-05T03:44:46;97409.13;;;-0.27;95.61
70254;BME280;57649;42.968;1.608;2023-03-05T03:47:12;97400.25;;;-0.26;95.45
70254;BME280;57649;42.968;1.608;2023-03-05T03:49:37;97405.09;;;-0.33;95.17
70254;BME280;57649;42.968;1.608;2023-03-05T03:52:03;97409.25;;;-0.43;95.76
70254;BME280;57649;42.968;1.608;2023-03-05T03:54:28;97399.78;;;-0.46;95.78
70254;BME280;57649;42.968;1.608;2023-03-05T03:56:54;97404.88;;;-0.30;95.78
70254;BME280;57649;42.968;1.608;2023-03-05T03:59:19;97407.50;;;-0.30;96.70
70254;BME280;57649;42.968;1.608;2023-03-05T04:01:45;97404.88;;;-0.30;96.25
70254;BME280;57649;42.968;1.608;2023-03-05T04:04:11;97403.84;;;-0.27;96.09
70254;BME280;57649;42.968;1.608;2023-03-05T04:06:37;97393.97;;;-0.24;95.76
70254;BME280;57649;42.968;1.608;2023-03-05T04:09:03;97397.72;;;-0.28;95.45
70254;BME280;57649;42.968;1.608;2023-03-05T04:11:28;97395.41;;;-0.32;94.90
70254;BME280;57649;42.968;1.608;2023-03-05T04:13:54;97395.19;;;-0.42;95.92
70254;BME280;57649;42.968;1.608;2023-03-05T04:16:19;97394.31;;;-0.43;96.63
70254;BME280;57649;42.968;1.608;2023-03-05T04:18:45;97397.69;;;-0.41;95.25
70254;BME280;57649;42.968;1.608;2023-03-05T04:21:10;97400.56;;;-0.31;95.76
70254;BME280;57649;42.968;1.608;2023-03-05T04:23:36;97392.47;;;-0.28;96.11
70254;BME280;57649;42.968;1.608;2023-03-05T04:26:02;97384.97;;;-0.34;95.89
70254;BME280;57649;42.968;1.608;2023-03-05T04:28:27;97394.72;;;-0.49;95.51
70254;BME280;57649;42.968;1.608;2023-03-05T04:30:53;97392.69;;;-0.58;95.93
70254;BME280;57649;42.968;1.608;2023-03-05T04:33:18;97393.84;;;-0.62;96.06
70254;BME280;57649;42.968;1.608;2023-03-05T04:35:44;97384.44;;;-0.66;95.88
70254;BME280;57649;42.968;1.608;2023-03-05T04:38:10;97381.81;;;-0.66;95.83
70254;BME280;57649;42.968;1.608;2023-03-05T04:40:35;97383.47;;;-0.51;96.35
70254;BME280;57649;42.968;1.608;2023-03-05T04:43:01;97385.50;;;-0.42;95.79
70254;BME280;57649;42.968;1.608;2023-03-05T04:45:27;97380.22;;;-0.42;95.87
70254;BME280;57649;42.968;1.608;2023-03-05T04:47:53;97378.72;;;-0.59;95.05
70254;BME280;57649;42.968;1.608;2023-03-05T04:50:18;97379.63;;;-0.60;96.36
70254;BME280;57649;42.968;1.608;2023-03-05T04:52:44;97386.94;;;-0.50;97.00
70254;BME280;57649;42.968;1.608;2023-03-05T04:55:10;97375.66;;;-0.52;96.14
70254;BME280;57649;42.968;1.608;2023-03-05T04:57:36;97374.72;;;-0.51;95.41
70254;BME280;57649;42.968;1.608;2023-03-05T05:00:07;97365.25;;;-0.54;95.53
70254;BME280;57649;42.968;1.608;2023-03-05T05:02:44;97369.97;;;-0.59;96.29
70254;BME280;57649;42.968;1.608;2023-03-05T05:05:13;97373.03;;;-0.52;96.58
70254;BME280;57649;42.968;1.608;2023-03-05T05:07:39;97365.56;;;-0.59;96.18
70254;BME280;57649;42.968;1.608;2023-03-05T05:10:05;97370.81;;;-0.59;95.64
70254;BME280;57649;42.968;1.608;2023-03-05T05:12:32;97368.56;;;-0.65;95.78
70254;BME280;57649;42.968;1.608;2023-03-05T05:14:58;97377.59;;;-0.69;96.02
70254;BME280;57649;42.968;1.608;2023-03-05T05:17:23;97381.38;;;-0.73;96.30
70254;BME280;57649;42.968;1.608;2023-03-05T05:19:49;97370.16;;;-0.89;96.29
70254;BME280;57649;42.968;1.608;2023-03-05T05:22:14;97376.66;;;-0.95;97.17
70254;BME280;57649;42.968;1.608;2023-03-05T05:24:40;97370.75;;;-0.99;97.79
70254;BME280;57649;42.968;1.608;2023-03-05T05:27:05;97368.84;;;-0.97;97.59
70254;BME280;57649;42.968;1.608;2023-03-05T05:29:30;97368.75;;;-0.95;97.17
70254;BME280;57649;42.968;1.608;2023-03-05T05:31:56;97370.28;;;-1.05;97.76
70254;BME280;57649;42.968;1.608;2023-03-05T05:34:21;97373.47;;;-1.14;98.06
70254;BME280;57649;42.968;1.608;2023-03-05T05:36:49;97375.72;;;-1.08;98.38
70254;BME280;57649;42.968;1.608;2023-03-05T05:39:14;97365.69;;;-1.02;98.12
70254;BME280;57649;42.968;1.608;2023-03-05T05:41:40;97362.78;;;-0.97;98.47
70254;BME280;57649;42.968;1.608;2023-03-05T05:44:05;97372.78;;;-0.89;97.10
70254;BME280;57649;42.968;1.608;2023-03-05T05:46:31;97361.72;;;-0.94;97.32
70254;BME280;57649;42.968;1.608;2023-03-05T05:48:56;97365.28;;;-0.95;98.02
70254;BME280;57649;42.968;1.608;2023-03-05T05:51:22;97370.34;;;-0.92;98.56
70254;BME280;57649;42.968;1.608;2023-03-05T05:53:47;97384.22;;;-0.90;97.73
70254;BME280;57649;42.968;1.608;2023-03-05T05:56:14;97381.31;;;-0.86;97.40
70254;BME280;57649;42.968;1.608;2023-03-05T05:58:42;97377.50;;;-0.94;97.21
70254;BME280;57649;42.968;1.608;2023-03-05T06:01:17;97379.66;;;-1.01;96.47
70254;BME280;57649;42.968;1.608;2023-03-05T06:03:43;97374.88;;;-1.09;97.73
70254;BME280;57649;42.968;1.608;2023-03-05T06:06:10;97379.94;;;-1.06;97.58
70254;BME280;57649;42.968;1.608;2023-03-05T06:08:37;97387.19;;;-1.09;97.42
70254;BME280;57649;42.968;1.608;2023-03-05T06:11:02;97374.13;;;-1.11;97.17
70254;BME280;57649;42.968;1.608;2023-03-05T06:13:28;97364.38;;;-1.09;97.54
70254;BME280;57649;42.968;1.608;2023-03-05T06:16:02;97365.75;;;-1.03;97.69
70254;BME280;57649;42.968;1.608;2023-03-05T06:18:28;97369.13;;;-1.01;98.54
70254;BME280;57649;42.968;1.608;2023-03-05T06:21:02;97360.88;;;-0.95;98.62
70254;BME280;57649;42.968;1.608;2023-03-05T06:23:28;97351.13;;;-0.93;98.09
70254;BME280;57649;42.968;1.608;2023-03-05T06:25:54;97350.72;;;-0.87;98.43
70254;BME280;57649;42.968;1.608;2023-03-05T06:28:22;97351.84;;;-0.91;97.81
70254;BME280;57649;42.968;1.608;2023-03-05T06:30:48;97351.66;;;-0.88;97.32
70254;BME280;57649;42.968;1.608;2023-03-05T06:33:13;97349.41;;;-0.94;97.26
70254;BME280;57649;42.968;1.608;2023-03-05T06:35:39;97356.28;;;-0.91;97.07
70254;BME280;57649;42.968;1.608;2023-03-05T06:38:06;97355.50;;;-0.93;96.69
70254;BME280;57649;42.968;1.608;2023-03-05T06:40:32;97352.78;;;-0.92;96.85
70254;BME280;57649;42.968;1.608;2023-03-05T06:42:58;97345.31;;;-0.98;96.33
70254;BME280;57649;42.968;1.608;2023-03-05T06:45:23;97354.38;;;-0.89;96.40
70254;BME280;57649;42.968;1.608;2023-03-05T06:47:48;97355.31;;;-0.90;96.83
70254;BME280;57649;42.968;1.608;2023-03-05T06:50:14;97355.03;;;-0.86;96.54
70254;BME280;57649;42.968;1.608;2023-03-05T06:52:39;97351.66;;;-0.88;96.57
70254;BME280;57649;42.968;1.608;2023-03-05T06:55:06;97362.84;;;-0.84;96.47
70254;BME280;57649;42.968;1.608;2023-03-05T06:57:32;97357.75;;;-0.87;96.69
70254;BME280;57649;42.968;1.608;2023-03-05T06:59:57;97358.41;;;-0.84;96.01
70254;BME280;57649;42.968;1.608;2023-03-05T07:02:23;97370.00;;;-0.73;96.10
70254;BME280;57649;42.968;1.608;2023-03-05T07:04:48;97363.03;;;-0.87;96.12
70254;BME280;57649;42.968;1.608;2023-03-05T07:07:14;97369.75;;;-0.83;95.94
70254;BME280;57649;42.968;1.608;2023-03-05T07:09:39;97363.66;;;-0.84;95.68
70254;BME280;57649;42.968;1.608;2023-03-05T07:12:11;97361.19;;;-0.72;95.87
70254;BME280;57649;42.968;1.608;2023-03-05T07:14:37;97369.72;;;-0.69;95.55
70254;BME280;57649;42.968;1.608;2023-03-05T07:17:04;97375.53;;;-0.64;94.87
70254;BME280;57649;42.968;1.608;2023-03-05T07:19:30;97372.34;;;-0.69;94.80
70254;BME280;57649;42.968;1.608;2023-03-05T07:21:55;97374.25;;;-0.71;95.26
70254;BME280;57649;42.968;1.608;2023-03-05T07:24:20;97367.09;;;-0.69;95.12
70254;BME280;57649;42.968;1.608;2023-03-05T07:26:48;97362.72;;;-0.55;96.08
70254;BME280;57649;42.968;1.608;2023-03-05T07:29:13;97363.06;;;-0.47;95.16
70254;BME280;57649;42.968;1.608;2023-03-05T07:31:39;97374.53;;;-0.48;95.08
70254;BME280;57649;42.968;1.608;2023-03-05T07:34:04;97366.09;;;-0.53;94.58
70254;BME280;57649;42.968;1.608;2023-03-05T07:36:30;97363.78;;;-0.58;94.10
70254;BME280;57649;42.968;1.608;2023-03-05T07:38:58;97353.94;;;-0.42;94.40
70254;BME280;57649;42.968;1.608;2023-03-05T07:41:23;97367.66;;;-0.24;94.20
70254;BME280;57649;42.968;1.608;2023-03-05T07:43:50;97353.53;;;-0.23;93.77
70254;BME280;57649;42.968;1.608;2023-03-05T07:46:19;97342.00;;;-0.07;93.23
70254;BME280;57649;42.968;1.608;2023-03-05T07:48:45;97350.84;;;0.05;92.84
70254;BME280;57649;42.968;1.608;2023-03-05T07:51:16;97342.03;;;0.06;93.09
70254;BME280;57649;42.968;1.608;2023-03-05T07:53:42;97339.25;;;0.20;92.67
70254;BME280;57649;42.968;1.608;2023-03-05T07:56:08;97334.88;;;0.33;91.75
70254;BME280;57649;42.968;1.608;2023-03-05T07:58:34;97343.16;;;0.40;91.13
70254;BME280;57649;42.968;1.608;2023-03-05T08:01:00;97328.53;;;0.36;91.29
70254;BME280;57649;42.968;1.608;2023-03-05T08:03:25;97325.78;;;0.50;90.49
70254;BME280;57649;42.968;1.608;2023-03-05T08:05:50;97331.50;;;0.44;91.09
70254;BME280;57649;42.968;1.608;2023-03-05T08:08:16;97332.50;;;0.54;90.60
70254;BME280;57649;42.968;1.608;2023-03-05T08:10:42;97321.00;;;0.68;90.19
70254;BME280;57649;42.968;1.608;2023-03-05T08:13:07;97322.56;;;0.71;90.25
70254;BME280;57649;42.968;1.608;2023-03-05T08:15:33;97327.00;;;0.83;89.75
70254;BME280;57649;42.968;1.608;2023-03-05T08:17:59;97327.56;;;1.00;88.84
70254;BME280;57649;42.968;1.608;2023-03-05T08:20:25;97325.44;;;1.05;88.49
70254;BME280;57649;42.968;1.608;2023-03-05T08:22:50;97315.06;;;1.14;88.06
70254;BME280;57649;42.968;1.608;2023-03-05T08:25:16;97326.28;;;1.29;87.05
70254;BME280;57649;42.968;1.608;2023-03-05T08:27:43;97315.19;;;1.37;87.14
70254;BME280;57649;42.968;1.608;2023-03-05T08:30:16;97313.44;;;1.49;86.04
70254;BME280;57649;42.968;1.608;2023-03-05T08:32:41;97316.22;;;1.59;85.26
70254;BME280;57649;42.968;1.608;2023-03-05T08:35:07;97318.41;;;1.65;84.93
70254;BME280;57649;42.968;1.608;2023-03-05T08:37:34;97320.03;;;1.79;84.76
70254;BME280;57649;42.968;1.608;2023-03-05T08:40:00;97311.06;;;1.92;83.89
70254;BME280;57649;42.968;1.608;2023-03-05T08:42:25;97312.63;;;2.06;83.46
70254;BME280;57649;42.968;1.608;2023-03-05T08:44:50;97313.97;;;2.12;83.10
70254;BME280;57649;42.968;1.608;2023-03-05T08:47:16;97317.50;;;2.35;82.28
70254;BME280;57649;42.968;1.608;2023-03-05T08:49:42;97315.47;;;2.50;81.44
70254;BME280;57649;42.968;1.608;2023-03-05T08:52:08;97298.38;;;2.65;80.52
70254;BME280;57649;42.968;1.608;2023-03-05T08:54:35;97299.13;;;2.79;79.66
70254;BME280;57649;42.968;1.608;2023-03-05T08:57:01;97288.38;;;3.03;77.96
70254;BME280;57649;42.968;1.608;2023-03-05T08:59:27;97294.78;;;3.33;77.25
70254;BME280;57649;42.968;1.608;2023-03-05T09:01:53;97293.47;;;3.80;75.50
70254;BME280;57649;42.968;1.608;2023-03-05T09:04:18;97291.06;;;4.19;74.79
70254;BME280;57649;42.968;1.608;2023-03-05T09:06:43;97287.63;;;4.59;74.08
70254;BME280;57649;42.968;1.608;2023-03-05T09:09:09;97282.22;;;5.11;71.85
70254;BME280;57649;42.968;1.608;2023-03-05T09:11:35;97282.97;;;5.52;70.67
70254;BME280;57649;42.968;1.608;2023-03-05T09:14:02;97277.47;;;5.93;68.81
70254;BME280;57649;42.968;1.608;2023-03-05T09:16:28;97269.63;;;6.30;67.49
70254;BME280;57649;42.968;1.608;2023-03-05T09:18:54;97260.50;;;6.70;65.16
70254;BME280;57649;42.968;1.608;2023-03-05T09:21:19;97249.16;;;6.96;63.62
70254;BME280;57649;42.968;1.608;2023-03-05T09:23:45;97255.34;;;7.15;63.03
70254;BME280;57649;42.968;1.608;2023-03-05T09:26:12;97260.91;;;7.39;61.81
70254;BME280;57649;42.968;1.608;2023-03-05T09:28:40;97259.41;;;7.55;60.62
70254;BME280;57649;42.968;1.608;2023-03-05T09:31:07;97248.16;;;7.87;59.32
70254;BME280;57649;42.968;1.608;2023-03-05T09:33:33;97246.56;;;8.20;59.08
70254;BME280;57649;42.968;1.608;2023-03-05T09:36:00;97249.84;;;8.40;57.20
70254;BME280;57649;42.968;1.608;2023-03-05T09:38:26;97238.03;;;8.69;55.45
70254;BME280;57649;42.968;1.608;2023-03-05T09:41:02;97229.56;;;8.82;54.81
70254;BME280;57649;42.968;1.608;2023-03-05T09:46:28;97225.31;;;9.14;53.79
70254;BME280;57649;42.968;1.608;2023-03-05T09:51:43;97214.03;;;9.36;53.02
70254;BME280;57649;42.968;1.608;2023-03-05T09:56:46;97207.03;;;9.68;52.10
70254;BME280;57649;42.968;1.608;2023-03-05T09:59:33;97202.34;;;9.87;50.79
70254;BME280;57649;42.968;1.608;2023-03-05T10:02:14;97199.59;;;10.19;50.78
70254;BME280;57649;42.968;1.608;2023-03-05T10:04:50;97183.72;;;10.26;50.57
70254;BME280;57649;42.968;1.608;2023-03-05T10:07:26;97185.50;;;10.50;50.06
70254;BME280;57649;42.968;1.608;2023-03-05T10:09:57;97172.47;;;10.47;50.38
70254;BME280;57649;42.968;1.608;2023-03-05T10:12:45;97168.41;;;10.59;49.94
70254;BME280;57649;42.968;1.608;2023-03-05T10:31:22;97140.16;;;11.58;50.46
70254;BME280;57649;42.968;1.608;2023-03-05T10:50:44;97107.84;;;11.89;49.87
70254;BME280;57649;42.968;1.608;2023-03-05T10:53:27;97109.06;;;12.01;49.25
70254;BME280;57649;42.968;1.608;2023-03-05T10:55:53;97104.16;;;12.20;49.25
70254;BME280;57649;42.968;1.608;2023-03-05T10:58:22;97097.97;;;12.34;49.10
70254;BME280;57649;42.968;1.608;2023-03-05T11:01:02;97092.81;;;12.03;49.92
70254;BME280;57649;42.968;1.608;2023-03-05T11:03:47;97090.41;;;11.93;49.96
70254;BME280;57649;42.968;1.608;2023-03-05T11:06:13;97077.78;;;11.79;49.94
70254;BME280;57649;42.968;1.608;2023-03-05T11:08:39;97080.34;;;11.87;49.88
70254;BME280;57649;42.968;1.608;2023-03-05T11:11:15;97073.66;;;12.06;49.98
70254;BME280;57649;42.968;1.608;2023-03-05T11:16:16;97066.88;;;12.25;49.23
70254;BME280;57649;42.968;1.608;2023-03-05T11:18:42;97065.19;;;11.64;49.64
70254;BME280;57649;42.968;1.608;2023-03-05T11:21:18;97057.66;;;12.12;49.25
70254;BME280;57649;42.968;1.608;2023-03-05T11:24:02;97051.44;;;11.97;49.54
70254;BME280;57649;42.968;1.608;2023-03-05T11:26:28;97044.19;;;11.83;49.91
70254;BME280;57649;42.968;1.608;2023-03-05T11:28:57;97048.38;;;12.30;49.83
70254;BME280;57649;42.968;1.608;2023-03-05T11:31:27;97052.50;;;12.32;49.15
70254;BME280;57649;42.968;1.608;2023-03-05T11:39:21;97028.31;;;12.11;48.62
70254;BME280;57649;42.968;1.608;2023-03-05T11:41:49;97015.81;;;12.18;48.69
70254;BME280;57649;42.968;1.608;2023-03-05T11:44:20;97023.94;;;12.25;48.78
70254;BME280;57649;42.968;1.608;2023-03-05T11:46:50;97017.34;;;11.91;49.18
70254;BME280;57649;42.968;1.608;2023-03-05T11:49:25;97017.53;;;12.41;48.26
70254;BME280;57649;42.968;1.608;2023-03-05T11:54:53;97002.59;;;12.17;48.13
70254;BME280;57649;42.968;1.608;2023-03-05T11:57:22;96996.69;;;11.91;49.81
70254;BME280;57649;42.968;1.608;2023-03-05T11:59:49;96994.34;;;12.03;50.11
70254;BME280;57649;42.968;1.608;2023-03-05T12:02:22;96987.41;;;12.45;49.05
70254;BME280;57649;42.968;1.608;2023-03-05T12:04:49;96984.88;;;12.37;48.36
70254;BME280;57649;42.968;1.608;2023-03-05T12:07:19;96979.22;;;12.32;48.44
70254;BME280;57649;42.968;1.608;2023-03-05T12:09:51;96972.63;;;12.49;48.33
70254;BME280;57649;42.968;1.608;2023-03-05T12:20:48;96963.75;;;12.34;49.01
70254;BME280;57649;42.968;1.608;2023-03-05T12:23:19;96965.13;;;12.08;48.87
70254;BME280;57649;42.968;1.608;2023-03-05T12:25:51;96946.13;;;12.25;48.46
70254;BME280;57649;42.968;1.608;2023-03-05T12:33:53;96942.31;;;12.77;47.72
70254;BME280;57649;42.968;1.608;2023-03-05T12:38:54;96943.13;;;12.35;48.33
70254;BME280;57649;42.968;1.608;2023-03-05T12:44:09;96923.94;;;12.38;48.60
70254;BME280;57649;42.968;1.608;2023-03-05T12:46:35;96926.72;;;12.66;48.96
70254;BME280;57649;42.968;1.608;2023-03-05T12:51:43;96913.47;;;12.21;48.53
70254;BME280;57649;42.968;1.608;2023-03-05T12:54:34;96914.94;;;12.45;48.39
70254;BME280;57649;42.968;1.608;2023-03-05T12:57:12;96912.66;;;12.42;48.25
70254;BME280;57649;42.968;1.608;2023-03-05T12:59:47;96903.00;;;12.48;47.94
70254;BME280;57649;42.968;1.608;2023-03-05T13:02:38;96903.00;;;12.26;48.44
70254;BME280;57649;42.968;1.608;2023-03-05T13:05:29;96895.84;;;12.55;48.07
70254;BME280;57649;42.968;1.608;2023-03-05T13:08:16;96897.03;;;12.52;48.22
70254;BME280;57649;42.968;1.608;2023-03-05T13:10:50;96887.34;;;12.51;47.64
70254;BME280;57649;42.968;1.608;2023-03-05T13:13:17;96879.91;;;12.54;47.79
70254;BME280;57649;42.968;1.608;2023-03-05T13:15:47;96866.88;;;12.50;47.97
70254;BME280;57649;42.968;1.608;2023-03-05T13:18:22;96866.47;;;12.25;47.75
70254;BME280;57649;42.968;1.608;2023-03-05T13:21:02;96865.16;;;12.43;48.56
70254;BME280;57649;42.968;1.608;2023-03-05T13:23:29;96856.72;;;12.46;48.33
70254;BME280;57649;42.968;1.608;2023-03-05T13:28:23;96855.69;;;12.47;47.66
70254;BME280;57649;42.968;1.608;2023-03-05T13:30:51;96864.06;;;12.59;47.41
70254;BME280;57649;42.968;1.608;2023-03-05T13:33:23;96848.06;;;12.50;47.42
70254;BME280;57649;42.968;1.608;2023-03-05T13:35:49;96845.78;;;12.47;48.21
70254;BME280;57649;42.968;1.608;2023-03-05T13:38:43;96839.75;;;12.67;47.34
70254;BME280;57649;42.968;1.608;2023-03-05T13:41:25;96838.31;;;12.71;46.86
70254;BME280;57649;42.968;1.608;2023-03-05T13:43:57;96838.47;;;12.63;47.61
70254;BME280;57649;42.968;1.608;2023-03-05T13:48:56;96830.31;;;12.49;47.70
70254;BME280;57649;42.968;1.608;2023-03-05T13:51:22;96828.41;;;12.43;47.12
70254;BME280;57649;42.968;1.608;2023-03-05T13:53:48;96811.47;;;12.43;47.40
70254;BME280;57649;42.968;1.608;2023-03-05T13:56:17;96811.91;;;12.75;47.31
70254;BME280;57649;42.968;1.608;2023-03-05T13:58:47;96812.59;;;12.83;46.68
70254;BME280;57649;42.968;1.608;2023-03-05T14:03:49;96807.13;;;12.70;47.19
70254;BME280;57649;42.968;1.608;2023-03-05T14:06:17;96802.91;;;12.89;46.47
70254;BME280;57649;42.968;1.608;2023-03-05T14:08:48;96801.91;;;12.97;46.58
70254;BME280;57649;42.968;1.608;2023-03-05T14:11:15;96787.78;;;12.81;46.30
70254;BME280;57649;42.968;1.608;2023-03-05T14:13:42;96791.69;;;12.79;46.34
70254;BME280;57649;42.968;1.608;2023-03-05T14:18:55;96794.34;;;12.72;46.09
70254;BME280;57649;42.968;1.608;2023-03-05T14:21:21;96781.16;;;12.84;45.39
70254;BME280;57649;42.968;1.608;2023-03-05T14:23:49;96789.31;;;12.97;45.85
70254;BME280;57649;42.968;1.608;2023-03-05T14:26:31;96787.47;;;12.98;45.53
70254;BME280;57649;42.968;1.608;2023-03-05T14:29:13;96781.81;;;13.21;45.59
70254;BME280;57649;42.968;1.608;2023-03-05T14:34:30;96782.75;;;13.06;45.39
70254;BME280;57649;42.968;1.608;2023-03-05T14:37:05;96785.78;;;12.97;44.71